sensor_id;sensor_type;location;lat;lon;timestamp;temperature;humidity
6260;DHT22;3163;51.516;4.000;2023-09-19T00:00:42;21.30;99.90
6260;DHT22;3163;51.516;4.000;2023-09-19T00:03:10;21.30;99.90
6260;DHT22;3163;51.516;4.000;2023-09-19T00:05:37;21.30;99.90
6260;DHT22;3163;51.516;4.000;2023-09-19T00:08:09;21.30;99.90
6260;DHT22;3163;51.516;4.000;2023-09-19T00:10:35;21.30;99.90
6260;DHT22;3163;51.516;4.000;2023-09-19T00:13:03;21.30;99.90
6260;DHT22;3163;51.516;4.000;2023-09-19T00:15:31;21.30;99.90
6260;DHT22;3163;51.516;4.000;2023-09-19T00:18:01;21.30;99.90
6260;DHT22;3163;51.516;4.000;2023-09-19T00:20:26;21.30;99.90
6260;DHT22;3163;51.516;4.000;2023-09-19T00:22:52;21.20;99.90
6260;DHT22;3163;51.516;4.000;2023-09-19T00:25:19;21.00;99.90
6260;DHT22;3163;51.516;4.000;2023-09-19T00:27:45;21.00;99.90
6260;DHT22;3163;51.516;4.000;2023-09-19T00:30:13;21.00;99.90
6260;DHT22;3163;51.516;4.000;2023-09-19T00:32:45;20.90;99.90
6260;DHT22;3163;51.516;4.000;2023-09-19T00:35:15;20.80;99.90
6260;DHT22;3163;51.516;4.000;2023-09-19T00:37:41;20.70;99.90
6260;DHT22;3163;51.516;4.000;2023-09-19T00:40:08;20.50;99.90
6260;DHT22;3163;51.516;4.000;2023-09-19T00:42:47;20.60;99.90
6260;DHT22;3163;51.516;4.000;2023-09-19T00:45:15;20.60;99.90
6260;DHT22;3163;51.516;4.000;2023-09-19T00:47:44;20.70;99.90
6260;DHT22;3163;51.516;4.000;2023-09-19T00:50:13;20.60;99.90
6260;DHT22;3163;51.516;4.000;2023-09-19T00:52:40;20.80;99.90
6260;DHT22;3163;51.516;4.000;2023-09-19T00:55:08;20.80;99.90
6260;DHT22;3163;51.516;4.000;2023-09-19T00:57:35;20.70;99.90
6260;DHT22;3163;51.516;4.000;2023-09-19T01:00:03;20.80;99.90
6260;DHT22;3163;51.516;4.000;2023-09-19T01:02:44;20.80;99.90
6260;DHT22;3163;51.516;4.000;2023-09-19T01:05:10;20.80;99.90
6260;DHT22;3163;51.516;4.000;2023-09-19T01:07:36;20.70;99.90
6260;DHT22;3163;51.516;4.000;2023-09-19T01:10:06;20.80;99.90
6260;DHT22;3163;51.516;4.000;2023-09-19T01:23:44;20.90;99.90
6260;DHT22;3163;51.516;4.000;2023-09-19T01:29:42;20.80;99.90
6260;DHT22;3163;51.516;4.000;2023-09-19T01:32:11;20.90;99.90
6260;DHT22;3163;51.516;4.000;2023-09-19T01:34:55;20.80;99.90
6260;DHT22;3163;51.516;4.000;2023-09-19T01:37:30;20.80;99.90
6260;DHT22;3163;51.516;4.000;2023-09-19T01:40:02;20.80;99.90
6260;DHT22;3163;51.516;4.000;2023-09-19T01:45:12;20.80;99.90
6260;DHT22;3163;51.516;4.000;2023-09-19T01:50:56;20.90;99.90
6260;DHT22;3163;51.516;4.000;2023-09-19T01:53:27;20.80;99.90
6260;DHT22;3163;51.516;4.000;2023-09-19T01:55:57;20.90;99.90
6260;DHT22;3163;51.516;4.000;2023-09-19T01:58:39;20.90;99.90
6260;DHT22;3163;51.516;4.000;2023-09-19T02:01:08;20.80;99.90
6260;DHT22;3163;51.516;4.000;2023-09-19T02:03:37;20.70;99.90
6260;DHT22;3163;51.516;4.000;2023-09-19T02:06:04;20.80;99.90
6260;DHT22;3163;51.516;4.000;2023-09-19T02:08:31;20.80;99.90
6260;DHT22;3163;51.516;4.000;2023-09-19T02:10:59;20.70;99.90
6260;DHT22;3163;51.516;4.000;2023-09-19T02:13:25;20.90;99.90
6260;DHT22;3163;51.516;4.000;2023-09-19T02:15:53;20.90;99.90
6260;DHT22;3163;51.516;4.000;2023-09-19T02:18:19;20.90;99.90
6260;DHT22;3163;51.516;4.000;2023-09-19T02:20:45;20.80;99.90
6260;DHT22;3163;51.516;4.000;2023-09-19T02:23:12;20.80;99.90
6260;DHT22;3163;51.516;4.000;2023-09-19T02:25:38;20.80;99.90
6260;DHT22;3163;51.516;4.000;2023-09-19T02:28:05;20.90;99.90
6260;DHT22;3163;51.516;4.000;2023-09-19T02:30:32;20.90;99.90
6260;DHT22;3163;51.516;4.000;2023-09-19T02:32:58;20.70;99.90
6260;DHT22;3163;51.516;4.000;2023-09-19T02:35:26;20.80;99.90
6260;DHT22;3163;51.516;4.000;2023-09-19T02:37:53;20.90;99.90
6260;DHT22;3163;51.516;4.000;2023-09-19T02:40:19;20.80;99.90
6260;DHT22;3163;51.516;4.000;2023-09-19T02:42:46;20.90;99.90
6260;DHT22;3163;51.516;4.000;2023-09-19T02:45:12;20.90;99.90
6260;DHT22;3163;51.516;4.000;2023-09-19T02:47:40;20.90;99.90
6260;DHT22;3163;51.516;4.000;2023-09-19T02:50:06;20.90;99.90
6260;DHT22;3163;51.516;4.000;2023-09-19T02:52:31;20.90;99.90
6260;DHT22;3163;51.516;4.000;2023-09-19T02:54:58;20.80;99.90
6260;DHT22;3163;51.516;4.000;2023-09-19T02:57:26;20.70;99.90
6260;DHT22;3163;51.516;4.000;2023-09-19T02:59:52;20.70;99.90
6260;DHT22;3163;51.516;4.000;2023-09-19T03:02:18;20.80;99.90
6260;DHT22;3163;51.516;4.000;2023-09-19T03:04:44;20.70;99.90
6260;DHT22;3163;51.516;4.000;2023-09-19T03:07:10;20.80;99.90
6260;DHT22;3163;51.516;4.000;2023-09-19T03:09:37;20.70;99.90
6260;DHT22;3163;51.516;4.000;2023-09-19T03:12:02;20.80;99.90
6260;DHT22;3163;51.516;4.000;2023-09-19T03:14:29;20.80;99.90
6260;DHT22;3163;51.516;4.000;2023-09-19T03:17:00;20.80;99.90
6260;DHT22;3163;51.516;4.000;2023-09-19T03:19:26;20.70;99.90
6260;DHT22;3163;51.516;4.000;2023-09-19T03:21:52;20.70;99.90
6260;DHT22;3163;51.516;4.000;2023-09-19T03:24:19;20.60;99.90
6260;DHT22;3163;51.516;4.000;2023-09-19T03:26:45;20.70;99.90
6260;DHT22;3163;51.516;4.000;2023-09-19T03:29:11;20.70;99.90
6260;DHT22;3163;51.516;4.000;2023-09-19T03:31:36;20.50;99.90
6260;DHT22;3163;51.516;4.000;2023-09-19T03:34:02;20.50;99.90
6260;DHT22;3163;51.516;4.000;2023-09-19T03:36:29;20.60;99.90
6260;DHT22;3163;51.516;4.000;2023-09-19T03:38:55;20.60;99.90
6260;DHT22;3163;51.516;4.000;2023-09-19T03:41:21;20.70;99.90
6260;DHT22;3163;51.516;4.000;2023-09-19T03:43:46;20.60;99.90
6260;DHT22;3163;51.516;4.000;2023-09-19T03:46:12;20.70;99.90
6260;DHT22;3163;51.516;4.000;2023-09-19T03:48:40;20.70;99.90
6260;DHT22;3163;51.516;4.000;2023-09-19T03:51:06;20.70;99.90
6260;DHT22;3163;51.516;4.000;2023-09-19T03:53:32;20.60;99.90
6260;DHT22;3163;51.516;4.000;2023-09-19T03:55:57;20.70;99.90
6260;DHT22;3163;51.516;4.000;2023-09-19T03:58:23;20.60;99.90
6260;DHT22;3163;51.516;4.000;2023-09-19T04:00:48;20.60;99.90
6260;DHT22;3163;51.516;4.000;2023-09-19T04:03:15;20.60;99.90
6260;DHT22;3163;51.516;4.000;2023-09-19T04:05:46;20.40;99.90
6260;DHT22;3163;51.516;4.000;2023-09-19T04:08:13;20.50;99.90
6260;DHT22;3163;51.516;4.000;2023-09-19T04:10:41;20.60;99.90
6260;DHT22;3163;51.516;4.000;2023-09-19T04:13:07;20.50;99.90
6260;DHT22;3163;51.516;4.000;2023-09-19T04:15:33;20.50;99.90
6260;DHT22;3163;51.516;4.000;2023-09-19T04:17:58;20.40;99.90
6260;DHT22;3163;51.516;4.000;2023-09-19T04:20:24;20.60;99.90
6260;DHT22;3163;51.516;4.000;2023-09-19T04:22:49;20.60;99.90
6260;DHT22;3163;51.516;4.000;2023-09-19T04:25:15;20.60;99.90
6260;DHT22;3163;51.516;4.000;2023-09-19T04:27:41;20.50;99.90
6260;DHT22;3163;51.516;4.000;2023-09-19T04:30:10;20.60;99.90
6260;DHT22;3163;51.516;4.000;2023-09-19T04:32:38;20.40;99.90
6260;DHT22;3163;51.516;4.000;2023-09-19T04:35:09;20.40;99.90
6260;DHT22;3163;51.516;4.000;2023-09-19T04:37:39;20.50;99.90
6260;DHT22;3163;51.516;4.000;2023-09-19T04:40:07;20.50;99.90
6260;DHT22;3163;51.516;4.000;2023-09-19T04:42:38;20.40;99.90
6260;DHT22;3163;51.516;4.000;2023-09-19T04:45:04;20.50;99.90
6260;DHT22;3163;51.516;4.000;2023-09-19T04:47:30;20.40;99.90
6260;DHT22;3163;51.516;4.000;2023-09-19T04:49:56;20.40;99.90
6260;DHT22;3163;51.516;4.000;2023-09-19T04:52:23;20.40;99.90
6260;DHT22;3163;51.516;4.000;2023-09-19T04:54:49;20.30;99.90
6260;DHT22;3163;51.516;4.000;2023-09-19T04:57:14;20.30;99.90
6260;DHT22;3163;51.516;4.000;2023-09-19T05:02:07;20.40;99.90
6260;DHT22;3163;51.516;4.000;2023-09-19T05:04:33;20.40;99.90
6260;DHT22;3163;51.516;4.000;2023-09-19T05:06:59;20.40;99.90
6260;DHT22;3163;51.516;4.000;2023-09-19T05:09:26;20.30;99.90
6260;DHT22;3163;51.516;4.000;2023-09-19T05:11:52;20.40;99.90
6260;DHT22;3163;51.516;4.000;2023-09-19T05:14:18;20.50;99.90
6260;DHT22;3163;51.516;4.000;2023-09-19T05:16:45;20.40;99.90
6260;DHT22;3163;51.516;4.000;2023-09-19T05:19:10;20.40;99.90
6260;DHT22;3163;51.516;4.000;2023-09-19T05:21:37;20.30;99.90
6260;DHT22;3163;51.516;4.000;2023-09-19T05:24:05;20.40;99.90
6260;DHT22;3163;51.516;4.000;2023-09-19T05:26:32;20.30;99.90
6260;DHT22;3163;51.516;4.000;2023-09-19T05:28:57;20.30;99.90
6260;DHT22;3163;51.516;4.000;2023-09-19T05:31:23;20.30;99.90
6260;DHT22;3163;51.516;4.000;2023-09-19T05:33:51;20.30;99.90
6260;DHT22;3163;51.516;4.000;2023-09-19T05:36:17;20.40;99.90
6260;DHT22;3163;51.516;4.000;2023-09-19T05:38:43;20.40;99.90
6260;DHT22;3163;51.516;4.000;2023-09-19T05:41:10;20.30;99.90
6260;DHT22;3163;51.516;4.000;2023-09-19T05:43:39;20.30;99.90
6260;DHT22;3163;51.516;4.000;2023-09-19T05:46:06;20.40;99.90
6260;DHT22;3163;51.516;4.000;2023-09-19T05:48:33;20.40;99.90
6260;DHT22;3163;51.516;4.000;2023-09-19T05:50:59;20.40;99.90
6260;DHT22;3163;51.516;4.000;2023-09-19T05:53:27;20.30;99.90
6260;DHT22;3163;51.516;4.000;2023-09-19T05:55:52;18.60;99.90
6260;DHT22;3163;51.516;4.000;2023-09-19T05:58:19;18.60;99.90
6260;DHT22;3163;51.516;4.000;2023-09-19T06:00:45;19.80;99.90
6260;DHT22;3163;51.516;4.000;2023-09-19T06:03:13;20.10;99.90
6260;DHT22;3163;51.516;4.000;2023-09-19T06:05:40;20.30;99.90
6260;DHT22;3163;51.516;4.000;2023-09-19T06:08:08;20.30;99.90
6260;DHT22;3163;51.516;4.000;2023-09-19T06:10:34;20.50;99.90
6260;DHT22;3163;51.516;4.000;2023-09-19T06:13:02;20.30;99.90
6260;DHT22;3163;51.516;4.000;2023-09-19T06:15:31;20.40;99.90
6260;DHT22;3163;51.516;4.000;2023-09-19T06:17:59;20.40;99.90
6260;DHT22;3163;51.516;4.000;2023-09-19T06:20:30;20.50;99.90
6260;DHT22;3163;51.516;4.000;2023-09-19T06:22:56;20.60;99.90
6260;DHT22;3163;51.516;4.000;2023-09-19T06:25:22;20.80;99.90
6260;DHT22;3163;51.516;4.000;2023-09-19T06:27:49;20.80;99.90
6260;DHT22;3163;51.516;4.000;2023-09-19T06:30:17;20.90;99.90
6260;DHT22;3163;51.516;4.000;2023-09-19T06:32:43;20.90;99.90
6260;DHT22;3163;51.516;4.000;2023-09-19T06:35:10;20.90;99.90
6260;DHT22;3163;51.516;4.000;2023-09-19T06:37:37;20.90;99.90
6260;DHT22;3163;51.516;4.000;2023-09-19T06:40:13;20.80;99.90
6260;DHT22;3163;51.516;4.000;2023-09-19T06:42:51;21.00;99.90
6260;DHT22;3163;51.516;4.000;2023-09-19T06:45:18;20.90;99.90
6260;DHT22;3163;51.516;4.000;2023-09-19T06:47:53;21.00;99.90
6260;DHT22;3163;51.516;4.000;2023-09-19T06:50:23;21.10;99.90
6260;DHT22;3163;51.516;4.000;2023-09-19T06:52:50;21.10;99.90
6260;DHT22;3163;51.516;4.000;2023-09-19T06:55:18;21.10;99.90
6260;DHT22;3163;51.516;4.000;2023-09-19T06:57:48;21.20;99.90
6260;DHT22;3163;51.516;4.000;2023-09-19T07:00:15;21.20;99.90
6260;DHT22;3163;51.516;4.000;2023-09-19T07:03:05;21.20;99.90
6260;DHT22;3163;51.516;4.000;2023-09-19T07:05:34;21.10;99.90
6260;DHT22;3163;51.516;4.000;2023-09-19T07:08:03;21.30;99.90
6260;DHT22;3163;51.516;4.000;2023-09-19T07:10:29;21.20;99.90
6260;DHT22;3163;51.516;4.000;2023-09-19T07:13:05;21.20;99.90
6260;DHT22;3163;51.516;4.000;2023-09-19T07:15:34;21.30;99.90
6260;DHT22;3163;51.516;4.000;2023-09-19T07:18:14;21.30;99.90
6260;DHT22;3163;51.516;4.000;2023-09-19T07:20:42;21.30;99.90
6260;DHT22;3163;51.516;4.000;2023-09-19T07:23:11;21.40;99.90
6260;DHT22;3163;51.516;4.000;2023-09-19T07:25:39;21.30;99.90
6260;DHT22;3163;51.516;4.000;2023-09-19T07:28:05;21.40;99.90
6260;DHT22;3163;51.516;4.000;2023-09-19T07:30:31;21.40;99.90
6260;DHT22;3163;51.516;4.000;2023-09-19T07:32:56;21.30;99.90
6260;DHT22;3163;51.516;4.000;2023-09-19T07:35:22;21.30;99.90
6260;DHT22;3163;51.516;4.000;2023-09-19T07:37:49;21.40;99.90
6260;DHT22;3163;51.516;4.000;2023-09-19T07:40:18;21.40;99.90
6260;DHT22;3163;51.516;4.000;2023-09-19T07:42:44;21.40;99.90
6260;DHT22;3163;51.516;4.000;2023-09-19T07:45:12;21.40;99.90
6260;DHT22;3163;51.516;4.000;2023-09-19T07:47:49;21.50;99.90
6260;DHT22;3163;51.516;4.000;2023-09-19T07:50:15;21.50;99.90
6260;DHT22;3163;51.516;4.000;2023-09-19T07:52:42;21.40;99.90
6260;DHT22;3163;51.516;4.000;2023-09-19T07:55:08;21.50;99.90
6260;DHT22;3163;51.516;4.000;2023-09-19T07:57:43;21.60;99.90
6260;DHT22;3163;51.516;4.000;2023-09-19T08:00:09;21.50;99.90
6260;DHT22;3163;51.516;4.000;2023-09-19T08:02:42;21.50;99.90
6260;DHT22;3163;51.516;4.000;2023-09-19T08:05:12;21.40;99.90
6260;DHT22;3163;51.516;4.000;2023-09-19T08:07:41;21.50;99.90
6260;DHT22;3163;51.516;4.000;2023-09-19T08:10:08;21.40;99.90
6260;DHT22;3163;51.516;4.000;2023-09-19T08:12:42;21.50;99.90
6260;DHT22;3163;51.516;4.000;2023-09-19T08:15:18;21.50;99.90
6260;DHT22;3163;51.516;4.000;2023-09-19T08:17:48;21.50;99.90
6260;DHT22;3163;51.516;4.000;2023-09-19T08:20:14;21.50;99.90
6260;DHT22;3163;51.516;4.000;2023-09-19T08:22:48;21.30;99.90
6260;DHT22;3163;51.516;4.000;2023-09-19T08:25:15;21.40;99.90
6260;DHT22;3163;51.516;4.000;2023-09-19T08:27:45;21.50;99.90
6260;DHT22;3163;51.516;4.000;2023-09-19T08:30:16;21.50;99.90
6260;DHT22;3163;51.516;4.000;2023-09-19T08:32:42;21.60;99.90
6260;DHT22;3163;51.516;4.000;2023-09-19T08:35:11;21.50;99.90
6260;DHT22;3163;51.516;4.000;2023-09-19T08:37:37;21.70;99.90
6260;DHT22;3163;51.516;4.000;2023-09-19T08:40:03;21.60;99.90
6260;DHT22;3163;51.516;4.000;2023-09-19T08:42:29;21.60;99.90
6260;DHT22;3163;51.516;4.000;2023-09-19T08:44:55;21.20;99.90
6260;DHT22;3163;51.516;4.000;2023-09-19T08:47:34;21.60;99.90
6260;DHT22;3163;51.516;4.000;2023-09-19T08:50:19;21.70;99.90
6260;DHT22;3163;51.516;4.000;2023-09-19T08:52:46;21.70;99.90
6260;DHT22;3163;51.516;4.000;2023-09-19T08:55:14;21.60;99.90
6260;DHT22;3163;51.516;4.000;2023-09-19T08:57:49;21.80;99.90
6260;DHT22;3163;51.516;4.000;2023-09-19T09:00:16;21.70;99.90
6260;DHT22;3163;51.516;4.000;2023-09-19T09:02:47;21.80;99.90
6260;DHT22;3163;51.516;4.000;2023-09-19T09:05:14;21.90;99.90
6260;DHT22;3163;51.516;4.000;2023-09-19T09:07:42;22.10;99.90
6260;DHT22;3163;51.516;4.000;2023-09-19T09:10:09;21.90;99.90
6260;DHT22;3163;51.516;4.000;2023-09-19T09:12:35;22.00;99.90
6260;DHT22;3163;51.516;4.000;2023-09-19T09:15:06;22.20;99.90
6260;DHT22;3163;51.516;4.000;2023-09-19T09:17:34;22.20;99.90
6260;DHT22;3163;51.516;4.000;2023-09-19T09:20:00;22.20;99.90
6260;DHT22;3163;51.516;4.000;2023-09-19T09:22:25;22.30;99.90
6260;DHT22;3163;51.516;4.000;2023-09-19T09:24:58;22.30;99.90
6260;DHT22;3163;51.516;4.000;2023-09-19T09:27:24;22.40;99.90
6260;DHT22;3163;51.516;4.000;2023-09-19T09:29:51;22.70;99.90
6260;DHT22;3163;51.516;4.000;2023-09-19T09:34:56;23.10;99.90
6260;DHT22;3163;51.516;4.000;2023-09-19T09:37:22;23.10;99.90
6260;DHT22;3163;51.516;4.000;2023-09-19T09:39:55;23.10;99.90
6260;DHT22;3163;51.516;4.000;2023-09-19T09:42:31;23.10;99.90
6260;DHT22;3163;51.516;4.000;2023-09-19T09:47:47;23.30;99.90
6260;DHT22;3163;51.516;4.000;2023-09-19T09:50:33;23.30;99.90
6260;DHT22;3163;51.516;4.000;2023-09-19T09:56:07;23.20;99.90
6260;DHT22;3163;51.516;4.000;2023-09-19T09:58:35;23.40;99.90
6260;DHT22;3163;51.516;4.000;2023-09-19T10:01:03;23.40;99.90
6260;DHT22;3163;51.516;4.000;2023-09-19T10:03:41;23.60;99.90
6260;DHT22;3163;51.516;4.000;2023-09-19T10:06:14;23.30;99.90
6260;DHT22;3163;51.516;4.000;2023-09-19T10:09:08;23.30;99.90
6260;DHT22;3163;51.516;4.000;2023-09-19T10:11:47;23.30;99.90
6260;DHT22;3163;51.516;4.000;2023-09-19T10:14:20;23.30;99.90
6260;DHT22;3163;51.516;4.000;2023-09-19T10:16:51;23.30;99.90
6260;DHT22;3163;51.516;4.000;2023-09-19T10:19:30;23.30;99.90
6260;DHT22;3163;51.516;4.000;2023-09-19T10:22:00;23.00;99.90
6260;DHT22;3163;51.516;4.000;2023-09-19T10:24:28;23.10;99.90
6260;DHT22;3163;51.516;4.000;2023-09-19T10:26:53;23.20;99.90
6260;DHT22;3163;51.516;4.000;2023-09-19T10:29:21;23.20;99.90
6260;DHT22;3163;51.516;4.000;2023-09-19T10:31:47;23.30;99.90
6260;DHT22;3163;51.516;4.000;2023-09-19T10:34:17;23.30;99.90
6260;DHT22;3163;51.516;4.000;2023-09-19T10:36:46;23.30;99.90
6260;DHT22;3163;51.516;4.000;2023-09-19T10:39:15;23.40;99.90
6260;DHT22;3163;51.516;4.000;2023-09-19T10:41:51;23.60;99.90
6260;DHT22;3163;51.516;4.000;2023-09-19T10:44:24;23.30;99.90
6260;DHT22;3163;51.516;4.000;2023-09-19T10:46:54;23.40;99.90
6260;DHT22;3163;51.516;4.000;2023-09-19T10:49:20;23.40;99.90
6260;DHT22;3163;51.516;4.000;2023-09-19T10:51:47;23.40;99.90
6260;DHT22;3163;51.516;4.000;2023-09-19T10:54:19;23.30;99.90
6260;DHT22;3163;51.516;4.000;2023-09-19T10:56:48;23.40;99.90
6260;DHT22;3163;51.516;4.000;2023-09-19T10:59:20;23.40;99.90
6260;DHT22;3163;51.516;4.000;2023-09-19T11:01:56;23.50;99.90
6260;DHT22;3163;51.516;4.000;2023-09-19T11:04:36;23.50;99.90
6260;DHT22;3163;51.516;4.000;2023-09-19T11:07:12;23.40;99.90
6260;DHT22;3163;51.516;4.000;2023-09-19T11:09:56;23.40;99.90
6260;DHT22;3163;51.516;4.000;2023-09-19T11:15:11;23.40;99.90
6260;DHT22;3163;51.516;4.000;2023-09-19T11:17:58;23.30;99.90
6260;DHT22;3163;51.516;4.000;2023-09-19T11:20:24;22.80;99.90
6260;DHT22;3163;51.516;4.000;2023-09-19T11:30:34;23.00;99.90
6260;DHT22;3163;51.516;4.000;2023-09-19T11:36:18;23.00;99.90
6260;DHT22;3163;51.516;4.000;2023-09-19T11:39:01;23.00;99.90
6260;DHT22;3163;51.516;4.000;2023-09-19T11:41:42;23.00;99.90
6260;DHT22;3163;51.516;4.000;2023-09-19T11:49:29;22.80;99.90
6260;DHT22;3163;51.516;4.000;2023-09-19T11:51:56;22.60;99.90
6260;DHT22;3163;51.516;4.000;2023-09-19T11:54:23;22.70;99.90
6260;DHT22;3163;51.516;4.000;2023-09-19T11:56:51;22.70;99.90
6260;DHT22;3163;51.516;4.000;2023-09-19T11:59:22;22.70;99.90
6260;DHT22;3163;51.516;4.000;2023-09-19T12:01:53;22.80;99.90
6260;DHT22;3163;51.516;4.000;2023-09-19T12:04:38;22.80;99.90
6260;DHT22;3163;51.516;4.000;2023-09-19T12:07:09;22.80;99.90
6260;DHT22;3163;51.516;4.000;2023-09-19T12:09:45;22.70;99.90
6260;DHT22;3163;51.516;4.000;2023-09-19T12:12:23;22.70;99.90
6260;DHT22;3163;51.516;4.000;2023-09-19T12:14:50;22.50;99.90
6260;DHT22;3163;51.516;4.000;2023-09-19T12:17:16;22.50;99.90
6260;DHT22;3163;51.516;4.000;2023-09-19T12:20:10;22.50;99.90
6260;DHT22;3163;51.516;4.000;2023-09-19T12:22:48;22.60;99.90
6260;DHT22;3163;51.516;4.000;2023-09-19T12:25:15;22.50;99.90
6260;DHT22;3163;51.516;4.000;2023-09-19T12:27:47;22.70;99.90
6260;DHT22;3163;51.516;4.000;2023-09-19T12:30:13;23.00;99.90
6260;DHT22;3163;51.516;4.000;2023-09-19T12:32:40;23.00;99.90
6260;DHT22;3163;51.516;4.000;2023-09-19T12:35:07;23.10;99.90
6260;DHT22;3163;51.516;4.000;2023-09-19T12:37:36;23.20;99.90
6260;DHT22;3163;51.516;4.000;2023-09-19T12:40:07;23.30;99.90
6260;DHT22;3163;51.516;4.000;2023-09-19T12:42:54;23.30;99.90
6260;DHT22;3163;51.516;4.000;2023-09-19T12:45:29;23.40;99.90
6260;DHT22;3163;51.516;4.000;2023-09-19T12:48:24;23.10;99.90
6260;DHT22;3163;51.516;4.000;2023-09-19T12:51:12;23.10;99.90
6260;DHT22;3163;51.516;4.000;2023-09-19T12:53:43;23.10;99.90
6260;DHT22;3163;51.516;4.000;2023-09-19T12:56:11;23.20;99.90
6260;DHT22;3163;51.516;4.000;2023-09-19T12:58:59;23.20;99.90
6260;DHT22;3163;51.516;4.000;2023-09-19T13:01:28;23.20;99.90
6260;DHT22;3163;51.516;4.000;2023-09-19T13:04:16;23.20;99.90
6260;DHT22;3163;51.516;4.000;2023-09-19T13:06:49;23.10;99.90
6260;DHT22;3163;51.516;4.000;2023-09-19T13:09:16;23.20;99.90
6260;DHT22;3163;51.516;4.000;2023-09-19T13:11:43;23.10;99.90
6260;DHT22;3163;51.516;4.000;2023-09-19T13:17:02;22.80;99.90
6260;DHT22;3163;51.516;4.000;2023-09-19T13:22:42;22.80;99.90
6260;DHT22;3163;51.516;4.000;2023-09-19T13:25:14;22.80;99.90
6260;DHT22;3163;51.516;4.000;2023-09-19T13:27:44;22.80;99.90
6260;DHT22;3163;51.516;4.000;2023-09-19T13:30:11;22.80;99.90
6260;DHT22;3163;51.516;4.000;2023-09-19T13:32:36;22.80;99.90
6260;DHT22;3163;51.516;4.000;2023-09-19T13:35:04;22.80;99.90
6260;DHT22;3163;51.516;4.000;2023-09-19T13:37:31;22.70;99.90
6260;DHT22;3163;51.516;4.000;2023-09-19T13:39:56;22.80;99.90
6260;DHT22;3163;51.516;4.000;2023-09-19T13:42:24;22.80;99.90
6260;DHT22;3163;51.516;4.000;2023-09-19T13:44:50;22.80;99.90
6260;DHT22;3163;51.516;4.000;2023-09-19T13:47:16;22.60;99.90
6260;DHT22;3163;51.516;4.000;2023-09-19T13:49:50;22.60;99.90
6260;DHT22;3163;51.516;4.000;2023-09-19T13:52:18;22.70;99.90
6260;DHT22;3163;51.516;4.000;2023-09-19T13:54:44;22.70;99.90
6260;DHT22;3163;51.516;4.000;2023-09-19T13:57:09;22.80;99.90
6260;DHT22;3163;51.516;4.000;2023-09-19T13:59:35;22.70;99.90
6260;DHT22;3163;51.516;4.000;2023-09-19T14:02:02;22.60;99.90
6260;DHT22;3163;51.516;4.000;2023-09-19T14:04:31;22.70;99.90
6260;DHT22;3163;51.516;4.000;2023-09-19T14:06:57;22.70;99.90
6260;DHT22;3163;51.516;4.000;2023-09-19T14:09:24;22.70;99.90
6260;DHT22;3163;51.516;4.000;2023-09-19T14:11:50;22.60;99.90
6260;DHT22;3163;51.516;4.000;2023-09-19T14:14:18;22.70;99.90
6260;DHT22;3163;51.516;4.000;2023-09-19T14:16:46;22.50;99.90
6260;DHT22;3163;51.516;4.000;2023-09-19T14:19:11;22.60;99.90
6260;DHT22;3163;51.516;4.000;2023-09-19T14:21:37;22.60;99.90
6260;DHT22;3163;51.516;4.000;2023-09-19T14:24:04;22.70;99.90
6260;DHT22;3163;51.516;4.000;2023-09-19T14:26:37;22.80;99.90
6260;DHT22;3163;51.516;4.000;2023-09-19T14:29:03;22.80;99.90
6260;DHT22;3163;51.516;4.000;2023-09-19T14:31:29;22.90;99.90
6260;DHT22;3163;51.516;4.000;2023-09-19T14:33:55;22.90;99.90
6260;DHT22;3163;51.516;4.000;2023-09-19T14:36:22;22.80;99.90
6260;DHT22;3163;51.516;4.000;2023-09-19T14:38:47;22.80;99.90
6260;DHT22;3163;51.516;4.000;2023-09-19T14:41:13;22.60;99.90
6260;DHT22;3163;51.516;4.000;2023-09-19T14:43:39;22.60;99.90
6260;DHT22;3163;51.516;4.000;2023-09-19T14:46:07;22.50;99.90
6260;DHT22;3163;51.516;4.000;2023-09-19T14:48:33;22.40;99.90
6260;DHT22;3163;51.516;4.000;2023-09-19T14:51:06;22.50;99.90
6260;DHT22;3163;51.516;4.000;2023-09-19T14:53:35;22.40;99.90
6260;DHT22;3163;51.516;4.000;2023-09-19T14:56:04;22.50;99.90
6260;DHT22;3163;51.516;4.000;2023-09-19T14:58:31;22.70;99.90
6260;DHT22;3163;51.516;4.000;2023-09-19T15:03:29;22.50;99.90
6260;DHT22;3163;51.516;4.000;2023-09-19T15:06:09;22.70;99.90
6260;DHT22;3163;51.516;4.000;2023-09-19T15:08:36;22.60;99.90
6260;DHT22;3163;51.516;4.000;2023-09-19T15:11:07;21.80;99.90
6260;DHT22;3163;51.516;4.000;2023-09-19T15:13:33;22.20;99.90
6260;DHT22;3163;51.516;4.000;2023-09-19T15:16:04;22.30;99.90
6260;DHT22;3163;51.516;4.000;2023-09-19T15:18:34;22.30;99.90
6260;DHT22;3163;51.516;4.000;2023-09-19T15:21:03;22.30;99.90
6260;DHT22;3163;51.516;4.000;2023-09-19T15:23:33;22.20;99.90
6260;DHT22;3163;51.516;4.000;2023-09-19T15:26:07;22.30;99.90
6260;DHT22;3163;51.516;4.000;2023-09-19T15:28:39;22.30;99.90
6260;DHT22;3163;51.516;4.000;2023-09-19T15:31:08;22.30;99.90
6260;DHT22;3163;51.516;4.000;2023-09-19T15:33:34;22.30;99.90
6260;DHT22;3163;51.516;4.000;2023-09-19T15:36:13;22.30;99.90
6260;DHT22;3163;51.516;4.000;2023-09-19T15:38:58;22.30;99.90
6260;DHT22;3163;51.516;4.000;2023-09-19T15:41:25;22.30;99.90
6260;DHT22;3163;51.516;4.000;2023-09-19T15:43:51;22.20;99.90
6260;DHT22;3163;51.516;4.000;2023-09-19T15:46:17;22.20;99.90
6260;DHT22;3163;51.516;4.000;2023-09-19T15:48:43;22.30;99.90
6260;DHT22;3163;51.516;4.000;2023-09-19T15:51:09;22.30;99.90
6260;DHT22;3163;51.516;4.000;2023-09-19T15:53:51;22.10;99.90
6260;DHT22;3163;51.516;4.000;2023-09-19T15:56:18;22.20;99.90
6260;DHT22;3163;51.516;4.000;2023-09-19T15:58:44;22.20;99.90
6260;DHT22;3163;51.516;4.000;2023-09-19T16:01:10;22.20;99.90
6260;DHT22;3163;51.516;4.000;2023-09-19T16:03:42;22.20;99.90
6260;DHT22;3163;51.516;4.000;2023-09-19T16:06:16;22.30;99.90
6260;DHT22;3163;51.516;4.000;2023-09-19T16:08:47;22.30;99.90
6260;DHT22;3163;51.516;4.000;2023-09-19T16:11:13;22.20;99.90
6260;DHT22;3163;51.516;4.000;2023-09-19T16:13:41;22.20;99.90
6260;DHT22;3163;51.516;4.000;2023-09-19T16:16:08;22.10;99.90
6260;DHT22;3163;51.516;4.000;2023-09-19T16:18:44;22.20;99.90
6260;DHT22;3163;51.516;4.000;2023-09-19T16:21:10;22.20;99.90
6260;DHT22;3163;51.516;4.000;2023-09-19T16:23:36;22.10;99.90
6260;DHT22;3163;51.516;4.000;2023-09-19T16:26:07;22.20;99.90
6260;DHT22;3163;51.516;4.000;2023-09-19T16:28:39;22.20;99.90
6260;DHT22;3163;51.516;4.000;2023-09-19T16:31:05;22.10;99.90
6260;DHT22;3163;51.516;4.000;2023-09-19T16:33:33;22.20;99.90
6260;DHT22;3163;51.516;4.000;2023-09-19T16:36:00;22.20;99.90
6260;DHT22;3163;51.516;4.000;2023-09-19T16:38:26;22.10;99.90
6260;DHT22;3163;51.516;4.000;2023-09-19T16:40:56;22.20;99.90
6260;DHT22;3163;51.516;4.000;2023-09-19T16:43:24;22.10;99.90
6260;DHT22;3163;51.516;4.000;2023-09-19T16:46:00;22.10;99.90
6260;DHT22;3163;51.516;4.000;2023-09-19T16:48:27;22.10;99.90
6260;DHT22;3163;51.516;4.000;2023-09-19T16:50:54;22.10;99.90
6260;DHT22;3163;51.516;4.000;2023-09-19T16:53:20;22.00;99.90
6260;DHT22;3163;51.516;4.000;2023-09-19T16:55:47;22.00;99.90
6260;DHT22;3163;51.516;4.000;2023-09-19T16:58:16;22.00;99.90
6260;DHT22;3163;51.516;4.000;2023-09-19T17:00:42;22.00;99.90
6260;DHT22;3163;51.516;4.000;2023-09-19T17:03:10;22.00;99.90
6260;DHT22;3163;51.516;4.000;2023-09-19T17:05:38;22.10;99.90
6260;DHT22;3163;51.516;4.000;2023-09-19T17:08:06;21.80;99.90
6260;DHT22;3163;51.516;4.000;2023-09-19T17:10:32;21.80;99.90
6260;DHT22;3163;51.516;4.000;2023-09-19T17:12:59;22.00;99.90